Time;durP1;ratioP1;P1;durP2;ratioP2;P2;SDS_P1;SDS_P2;PMS_P1;PMS_P2;Temp;Humidity;BMP_temperature;BMP_pressure;BME280_temperature;BME280_humidity;BME280_pressure;Samples;Min_cycle;Max_cycle;Signal;HPM_P1;HPM_P2
2022/11/03 00:02:19;;;;;;;4.73;2.00;;;8.80;99.90;;;;;;10371982;28;20245;-82
2022/11/03 00:07:40;;;;;;;5.10;2.43;;;8.90;99.90;;;;;;10382112;28;20203;-80
2022/11/03 00:13:02;;;;;;;6.17;1.57;;;8.90;99.90;;;;;;10397111;28;20214;-80
2022/11/03 00:18:23;;;;;;;4.80;1.90;;;8.90;99.90;;;;;;10409251;28;20206;-80
2022/11/03 00:23:45;;;;;;;3.17;2.03;;;8.80;99.90;;;;;;10380441;28;20230;-80
2022/11/03 00:29:12;;;;;;;6.63;2.00;;;8.80;99.90;;;;;;10423148;28;20194;-80
2022/11/03 00:34:33;;;;;;;8.83;2.50;;;8.70;99.90;;;;;;10359710;28;20202;-79
2022/11/03 00:39:54;;;;;;;9.97;2.67;;;8.60;99.90;;;;;;10384662;28;20500;-80
2022/11/03 00:45:15;;;;;;;5.17;1.80;;;8.60;99.90;;;;;;10357522;28;20230;-79
2022/11/03 00:50:37;;;;;;;8.67;2.37;;;8.70;99.90;;;;;;10355238;28;20191;-80
2022/11/03 00:55:58;;;;;;;4.03;1.27;;;8.60;99.90;;;;;;10353996;28;20203;-80
2022/11/03 01:01:21;;;;;;;6.53;2.20;;;8.60;99.90;;;;;;10356697;28;20199;-79
2022/11/03 01:06:52;;;;;;;5.13;2.17;;;8.60;99.90;;;;;;10394320;28;20426;-80
2022/11/03 01:12:16;;;;;;;6.53;1.93;;;8.60;99.90;;;;;;10393670;28;20248;-80
2022/11/03 01:17:39;;;;;;;5.43;1.80;;;8.60;99.90;;;;;;10394473;28;20198;-80
2022/11/03 01:23:00;;;;;;;11.27;1.93;;;8.70;99.90;;;;;;10394940;28;20273;-80
2022/11/03 01:28:21;;;;;;;5.20;1.70;;;8.60;99.90;;;;;;10393759;28;20201;-80
2022/11/03 01:33:44;;;;;;;3.20;1.33;;;8.60;99.90;;;;;;10394003;28;20223;-80
2022/11/03 01:39:05;;;;;;;4.63;1.80;;;8.50;99.90;;;;;;10388729;28;20187;-79
2022/11/03 01:44:33;;;;;;;5.57;1.70;;;8.40;99.90;;;;;;10365703;28;20222;-80
2022/11/03 01:50:15;;;;;;;5.53;2.37;;;8.40;99.90;;;;;;10346294;28;20210;-80
2022/11/03 01:55:38;;;;;;;4.47;1.83;;;8.30;99.90;;;;;;10379019;28;20223;-80
2022/11/03 02:01:01;;;;;;;5.27;2.13;;;;;;;;;;10387925;28;20266;-80
2022/11/03 02:06:24;;;;;;;2.97;1.90;;;8.10;99.90;;;;;;10400200;28;20277;-79
2022/11/03 02:17:29;;;;;;;6.20;2.00;;;7.90;99.90;;;;;;10428348;28;20220;-80
2022/11/03 02:23:24;;;;;;;8.53;2.47;;;7.80;99.90;;;;;;10399303;28;20231;-80
2022/11/03 02:28:45;;;;;;;4.90;1.63;;;7.80;99.90;;;;;;10407608;28;20201;-80
2022/11/03 02:34:22;;;;;;;6.10;1.60;;;7.70;99.90;;;;;;10385523;28;20201;-80
2022/11/03 02:39:51;;;;;;;4.23;1.47;;;7.60;99.90;;;;;;10399227;28;20200;-80
2022/11/03 02:45:14;;;;;;;5.40;1.87;;;;;;;;;;10359113;28;20460;-80
2022/11/03 02:50:36;;;;;;;3.03;1.47;;;7.50;99.90;;;;;;10375154;28;20194;-80
2022/11/03 02:56:14;;;;;;;4.53;1.70;;;7.50;99.90;;;;;;10348693;28;20193;-80
2022/11/03 03:01:47;;;;;;;8.40;2.33;;;7.40;99.90;;;;;;10348305;28;20275;-80
2022/11/03 03:07:29;;;;;;;11.07;2.90;;;7.40;99.90;;;;;;10398140;28;20204;-78
2022/11/03 03:12:54;;;;;;;4.93;2.00;;;7.40;99.90;;;;;;10411241;28;20340;-80
2022/11/03 03:18:19;;;;;;;4.53;1.77;;;7.30;99.90;;;;;;10398507;28;20223;-79
2022/11/03 03:23:48;;;;;;;3.93;1.70;;;7.30;99.90;;;;;;10411488;28;20457;-79
2022/11/03 03:29:21;;;;;;;4.83;1.93;;;7.20;99.90;;;;;;10402190;28;20204;-80
2022/11/03 03:34:46;;;;;;;4.43;1.80;;;7.20;99.90;;;;;;10397862;28;20196;-80
2022/11/03 03:40:10;;;;;;;8.03;2.20;;;7.10;99.90;;;;;;10412182;28;20230;-79
2022/11/03 03:45:33;;;;;;;4.47;1.97;;;7.10;99.90;;;;;;10355833;28;20271;-80
2022/11/03 03:50:55;;;;;;;7.47;2.20;;;7.10;99.90;;;;;;10355759;28;20211;-80
2022/11/03 03:56:30;;;;;;;6.90;1.93;;;7.10;99.90;;;;;;10369199;28;20268;-79
2022/11/03 04:01:52;;;;;;;4.50;2.20;;;7.00;99.90;;;;;;10367302;28;20208;-77
2022/11/03 04:24:12;;;;;;;5.27;2.50;;;6.90;99.90;;;;;;10422302;28;20224;-80
2022/11/03 04:29:33;;;;;;;10.83;3.77;;;6.90;99.90;;;;;;10394540;28;20196;-80
2022/11/03 04:34:54;;;;;;;16.67;5.53;;;6.80;99.90;;;;;;10367642;28;20207;-80
2022/11/03 04:40:16;;;;;;;12.67;6.23;;;;;;;;;;10381160;28;20197;-80
2022/11/03 04:45:38;;;;;;;14.13;5.13;;;6.80;99.90;;;;;;10353910;28;20451;-80
2022/11/03 04:51:01;;;;;;;10.10;5.53;;;6.60;99.90;;;;;;10340394;28;20399;-80
2022/11/03 04:56:24;;;;;;;8.10;4.50;;;6.70;99.90;;;;;;10353983;28;20191;-79
2022/11/03 05:01:45;;;;;;;9.27;6.00;;;6.60;99.90;;;;;;10346054;28;20199;-79
2022/11/03 05:07:33;;;;;;;16.27;8.90;;;;;;;;;;10395414;28;20192;-80
2022/11/03 05:12:56;;;;;;;19.27;10.07;;;6.30;99.90;;;;;;10375810;28;20204;-79
2022/11/03 05:18:30;;;;;;;14.87;9.00;;;6.40;99.90;;;;;;10413057;28;20204;-79
2022/11/03 05:23:54;;;;;;;15.03;8.10;;;;;;;;;;10401450;28;20224;-79
2022/11/03 05:29:19;;;;;;;18.60;11.80;;;6.00;99.90;;;;;;10401442;28;20421;-79
2022/11/03 05:34:42;;;;;;;17.87;11.63;;;;;;;;;;10387535;28;20204;-80
2022/11/03 05:40:27;;;;;;;15.97;9.13;;;;;;;;;;10388456;28;20191;-79
2022/11/03 05:45:51;;;;;;;13.67;5.77;;;5.90;99.90;;;;;;10401179;28;20290;-79
2022/11/03 05:51:23;;;;;;;11.50;7.13;;;5.90;99.90;;;;;;10400766;28;20395;-79
2022/11/03 05:56:44;;;;;;;16.13;10.83;;;5.90;99.90;;;;;;10386712;28;20232;-79
2022/11/03 06:02:39;;;;;;;21.40;13.87;;;5.70;99.90;;;;;;10428686;28;20376;-80
2022/11/03 06:08:01;;;;;;;22.70;14.63;;;;;;;;;;10388699;28;20208;-79
2022/11/03 06:13:35;;;;;;;23.97;12.50;;;5.70;99.90;;;;;;10385801;28;20208;-80
2022/11/03 06:18:58;;;;;;;25.07;14.93;;;5.80;99.90;;;;;;10389223;28;20200;-79
2022/11/03 06:24:24;;;;;;;26.10;15.07;;;6.00;99.90;;;;;;10399745;28;20224;-79
2022/11/03 06:29:49;;;;;;;25.60;11.37;;;6.10;99.90;;;;;;10381559;28;20249;-79
2022/11/03 06:35:13;;;;;;;22.07;10.23;;;6.20;99.90;;;;;;10371314;28;20203;-79
2022/11/03 06:40:38;;;;;;;30.07;19.87;;;6.20;99.90;;;;;;10397897;28;20217;-81
2022/11/03 06:46:01;;;;;;;33.97;24.30;;;6.20;99.90;;;;;;10357788;28;20256;-80
2022/11/03 06:51:27;;;;;;;13.23;9.20;;;6.10;99.90;;;;;;10358045;28;20242;-80
2022/11/03 06:56:48;;;;;;;11.93;7.60;;;6.30;99.90;;;;;;10370925;28;20236;-81
2022/11/03 07:02:38;;;;;;;10.67;7.20;;;6.40;99.90;;;;;;10353728;28;20200;-80
2022/11/03 07:08:19;;;;;;;23.60;12.50;;;6.60;99.90;;;;;;10397840;28;20203;-79
2022/11/03 07:13:41;;;;;;;12.83;9.03;;;6.80;99.90;;;;;;10389280;28;20243;-79
2022/11/03 07:19:26;;;;;;;14.83;11.60;;;7.10;99.90;;;;;;10396960;28;20248;-79
2022/11/03 07:24:52;;;;;;;15.37;10.90;;;7.70;99.90;;;;;;10375733;28;20253;-79
2022/11/03 07:30:27;;;;;;;14.07;8.90;;;8.20;99.90;;;;;;10393377;28;20199;-80
2022/11/03 07:35:50;;;;;;;11.67;7.03;;;8.40;99.90;;;;;;10379198;28;20212;-80
2022/11/03 07:41:32;;;;;;;11.70;6.37;;;8.60;99.90;;;;;;10395606;28;20536;-79
2022/11/03 07:46:54;;;;;;;24.93;12.17;;;8.80;99.90;;;;;;10341457;28;20232;-80
2022/11/03 07:52:23;;;;;;;21.93;12.70;;;9.10;99.90;;;;;;10344456;28;20199;-80
2022/11/03 07:57:43;;;;;;;16.43;8.83;;;9.70;99.90;;;;;;10396006;28;20203;-78
2022/11/03 08:03:05;;;;;;;14.30;7.93;;;9.70;99.90;;;;;;10381801;28;20296;-79
2022/11/03 08:08:26;;;;;;;10.00;5.77;;;9.80;99.90;;;;;;10367810;28;20249;-79
2022/11/03 08:13:48;;;;;;;11.40;4.55;;;10.80;99.90;;;;;;10395216;28;20209;-80
2022/11/03 08:19:10;;;;;;;12.32;6.40;;;11.60;99.90;;;;;;10360437;28;20311;-79
2022/11/03 08:24:31;;;;;;;6.43;4.05;;;;;;;;;;10393194;28;20237;-79
2022/11/03 08:29:52;;;;;;;13.00;5.60;;;14.00;99.90;;;;;;10394073;28;20201;-82
2022/11/03 08:35:13;;;;;;;6.18;4.15;;;14.10;88.30;;;;;;10364653;28;20516;-78
2022/11/03 08:40:34;;;;;;;10.50;4.95;;;14.70;82.40;;;;;;10388658;28;20195;-84
2022/11/03 08:45:55;;;;;;;8.80;4.88;;;14.80;73.20;;;;;;10404229;28;20239;-82
2022/11/03 08:51:19;;;;;;;9.40;6.28;;;13.60;80.70;;;;;;10390318;28;20193;-81
2022/11/03 08:56:40;;;;;;;11.10;5.68;;;12.60;93.10;;;;;;10366138;28;20223;-80
2022/11/03 09:02:02;;;;;;;19.35;7.97;;;12.10;96.50;;;;;;10351000;28;20562;-80
2022/11/03 09:07:23;;;;;;;10.90;5.90;;;11.70;99.20;;;;;;10363241;28;20203;-81
2022/11/03 09:12:44;;;;;;;11.70;6.13;;;11.60;99.90;;;;;;10367047;28;20458;-80
2022/11/03 09:18:05;;;;;;;39.57;15.57;;;11.50;99.90;;;;;;10401321;28;20607;-81
2022/11/03 09:23:26;;;;;;;10.87;4.83;;;11.30;99.90;;;;;;10366399;28;20449;-78
2022/11/03 09:28:48;;;;;;;19.33;7.83;;;11.20;99.90;;;;;;10382986;28;20255;-81
2022/11/03 09:34:09;;;;;;;15.57;4.70;;;11.20;99.90;;;;;;10396601;28;20191;-80
2022/11/03 09:39:30;;;;;;;5.93;3.17;;;11.20;99.90;;;;;;10393291;28;20518;-80
2022/11/03 09:44:53;;;;;;;9.47;2.90;;;11.20;99.90;;;;;;10437599;28;20256;-80
2022/11/03 09:50:19;;;;;;;7.80;2.90;;;11.20;99.90;;;;;;10438511;28;20388;-80
2022/11/03 09:55:40;;;;;;;13.30;5.67;;;11.40;99.90;;;;;;10438962;28;20201;-80
2022/11/03 10:01:02;;;;;;;7.77;3.47;;;11.50;99.90;;;;;;10354790;28;20211;-80
2022/11/03 10:06:24;;;;;;;10.13;4.70;;;11.70;99.90;;;;;;10380836;28;20253;-80
2022/11/03 10:11:46;;;;;;;9.27;3.40;;;11.70;99.90;;;;;;10366775;28;20590;-80
2022/11/03 10:17:29;;;;;;;9.27;3.23;;;11.70;99.90;;;;;;10408258;28;20458;-80
2022/11/03 10:22:52;;;;;;;8.17;4.20;;;11.80;99.90;;;;;;10413223;28;20229;-80
2022/11/03 10:28:20;;;;;;;10.57;3.47;;;11.80;99.90;;;;;;10372293;28;20289;-78
2022/11/03 10:33:51;;;;;;;11.13;2.93;;;11.90;99.90;;;;;;10392055;28;20278;-78
2022/11/03 10:39:32;;;;;;;6.90;2.80;;;12.20;99.60;;;;;;10392062;28;20498;-80
2022/11/03 10:45:07;;;;;;;12.00;3.97;;;12.50;98.30;;;;;;10366216;28;20333;-78
2022/11/03 10:50:29;;;;;;;7.37;3.37;;;12.60;96.60;;;;;;10367234;28;20251;-80
2022/11/03 10:55:50;;;;;;;10.93;3.53;;;12.90;95.80;;;;;;10380743;28;20223;-82
2022/11/03 11:01:11;;;;;;;6.37;3.47;;;13.30;92.40;;;;;;10363862;28;20196;-80
2022/11/03 11:06:33;;;;;;;11.82;4.78;;;13.90;88.50;;;;;;10377402;28;20232;-81
2022/11/03 11:12:16;;;;;;;10.65;4.20;;;14.20;84.30;;;;;;10350005;28;20286;-83
2022/11/03 11:17:42;;;;;;;17.27;7.47;;;14.80;76.10;;;;;;10376553;28;20529;-82
2022/11/03 11:23:28;;;;;;;8.02;3.78;;;15.50;67.70;;;;;;10391068;28;20275;-80
2022/11/03 11:29:08;;;;;;;16.77;8.18;;;15.70;61.70;;;;;;10381041;28;20203;-83
2022/11/03 11:34:36;;;;;;;9.77;4.25;;;15.40;59.70;;;;;;10379243;28;20204;-83
2022/11/03 11:39:57;;;;;;;7.20;3.20;;;14.90;64.20;;;;;;10369352;28;20245;-83
2022/11/03 11:46:16;;;;;;;10.52;3.15;;;14.80;64.60;;;;;;10419955;28;20310;-79
2022/11/03 11:51:37;;;;;;;7.22;3.10;;;14.30;67.20;;;;;;10279254;28;20201;-80
2022/11/03 11:56:58;;;;;;;7.38;3.05;;;13.90;71.80;;;;;;10244735;28;20211;-80
2022/11/03 12:02:28;;;;;;;8.65;3.42;;;13.60;76.90;;;;;;10218292;29;20214;-83
2022/11/03 12:07:50;;;;;;;7.07;3.30;;;14.50;74.80;;;;;;10237147;29;20225;-89
2022/11/03 12:13:32;;;;;;;7.90;3.38;;;;;;;;;;10199374;29;20515;-84
2022/11/03 12:19:32;;;;;;;9.57;3.95;;;;;;;;;;10254844;28;20218;-79
2022/11/03 12:25:01;;;;;;;5.38;2.75;;;19.00;39.70;;;;;;10368250;28;20236;-87
2022/11/03 12:30:22;;;;;;;9.95;2.75;;;19.50;34.60;;;;;;10351194;28;20248;-87
2022/11/03 12:35:43;;;;;;;6.32;2.47;;;20.10;30.00;;;;;;10348155;28;20217;-84
2022/11/03 12:46:43;;;;;;;6.60;2.22;;;20.70;25.10;;;;;;10365010;28;20543;-81
2022/11/03 12:52:06;;;;;;;4.50;2.53;;;20.40;25.70;;;;;;10349981;28;20225;-81
2022/11/03 12:57:28;;;;;;;6.93;2.75;;;20.20;23.70;;;;;;10349962;28;20198;-82
2022/11/03 13:02:50;;;;;;;6.13;2.88;;;19.50;24.30;;;;;;10359488;28;20201;-79
2022/11/03 13:08:11;;;;;;;5.38;2.03;;;18.40;24.90;;;;;;10388503;28;20607;-82
2022/11/03 13:13:32;;;;;;;20.90;12.50;;;17.20;27.80;;;;;;10373960;28;20267;-82
2022/11/03 13:18:54;;;;;;;8.27;2.95;;;16.20;30.00;;;;;;10395259;28;20194;-81
2022/11/03 13:24:15;;;;;;;8.35;3.15;;;15.50;31.50;;;;;;10359392;28;20231;-81
2022/11/03 13:29:36;;;;;;;9.35;3.53;;;15.10;34.20;;;;;;10379232;28;20195;-82
2022/11/03 13:34:57;;;;;;;4.63;2.40;;;14.60;35.10;;;;;;10374359;28;20561;-81
2022/11/03 13:40:19;;;;;;;8.47;2.80;;;;;;;;;;10383178;28;20204;-83
2022/11/03 13:46:02;;;;;;;6.37;3.40;;;14.00;41.80;;;;;;10381302;28;20307;-80
2022/11/03 13:51:23;;;;;;;11.98;4.03;;;13.50;43.10;;;;;;10381704;28;20255;-79
2022/11/03 13:56:45;;;;;;;57.80;24.37;;;13.50;47.60;;;;;;10381668;28;20231;-80
2022/11/03 14:02:27;;;;;;;13.30;6.67;;;13.10;48.40;;;;;;10372280;28;20200;-79
2022/11/03 14:08:08;;;;;;;8.73;4.10;;;12.90;58.40;;;;;;10394675;28;20310;-81
2022/11/03 14:13:29;;;;;;;10.20;3.80;;;12.70;63.40;;;;;;10412060;28;20206;-79
2022/11/03 14:18:51;;;;;;;15.60;7.53;;;12.50;67.70;;;;;;10380432;28;20201;-87
2022/11/03 14:24:12;;;;;;;18.87;12.10;;;12.30;73.10;;;;;;10390361;28;20230;-88
2022/11/03 14:29:34;;;;;;;18.17;11.33;;;12.20;81.60;;;;;;10382366;28;20299;-87
2022/11/03 14:34:54;;;;;;;13.03;5.90;;;12.00;88.60;;;;;;10374251;28;20210;-86
2022/11/03 14:42:02;;;;;;;4.83;2.40;;;;;;;;;;10398710;28;20463;-81
2022/11/03 14:45:57;;;;;;;16.30;10.07;;;11.60;99.90;;;;;;10393098;28;20276;-88
2022/11/03 14:51:18;;;;;;;7.20;4.73;;;11.50;99.90;;;;;;10403504;28;20220;-85
2022/11/03 14:56:40;;;;;;;7.20;3.63;;;;;;;;;;10408022;28;20197;-85
2022/11/03 15:02:02;;;;;;;9.53;5.83;;;11.00;97.50;;;;;;10395235;28;20191;-84
2022/11/03 15:07:24;;;;;;;8.27;5.27;;;10.90;99.40;;;;;;10394716;28;20326;-85
2022/11/03 15:12:46;;;;;;;8.40;5.60;;;10.70;99.90;;;;;;10388745;28;20229;-80
2022/11/03 15:18:10;;;;;;;7.93;5.07;;;10.60;99.90;;;;;;10380507;28;20240;-81
2022/11/03 15:23:31;;;;;;;10.73;6.27;;;10.30;99.90;;;;;;10432308;28;20573;-85
2022/11/03 15:29:12;;;;;;;9.73;6.37;;;10.20;99.90;;;;;;10406881;28;20379;-81
2022/11/03 15:34:33;;;;;;;11.53;7.43;;;10.00;99.90;;;;;;10418645;28;20485;-83
2022/11/03 15:39:54;;;;;;;19.43;11.20;;;9.90;99.90;;;;;;10389784;28;20202;-87
2022/11/03 15:45:18;;;;;;;23.07;11.50;;;9.80;99.90;;;;;;10401099;28;20219;-86
2022/11/03 15:50:39;;;;;;;13.03;7.90;;;9.70;99.90;;;;;;10439701;28;20375;-83
2022/11/03 15:56:01;;;;;;;16.77;7.50;;;9.60;99.90;;;;;;10406981;28;20199;-83
2022/11/03 16:01:24;;;;;;;15.13;8.03;;;9.50;99.90;;;;;;10433807;28;20215;-80
2022/11/03 16:06:45;;;;;;;22.20;11.50;;;9.40;99.90;;;;;;10398710;28;20240;-83
2022/11/03 16:12:26;;;;;;;31.63;16.90;;;9.30;99.90;;;;;;10345030;28;20226;-79
2022/11/03 16:17:47;;;;;;;29.00;17.47;;;9.20;99.90;;;;;;10316629;28;20844;-80
2022/11/03 16:23:08;;;;;;;31.53;17.73;;;9.10;99.90;;;;;;10342182;28;20208;-83
2022/11/03 16:28:30;;;;;;;33.10;19.93;;;9.00;99.90;;;;;;10368605;28;20507;-82
2022/11/03 16:33:51;;;;;;;35.87;22.80;;;9.00;99.90;;;;;;10352172;28;20394;-82
2022/11/03 16:39:12;;;;;;;32.83;18.40;;;8.90;99.90;;;;;;10363970;28;20539;-79
2022/11/03 16:44:34;;;;;;;27.63;14.33;;;8.80;99.90;;;;;;10380402;28;20310;-82
2022/11/03 16:49:55;;;;;;;19.83;11.87;;;8.80;99.90;;;;;;10319321;28;20214;-83
2022/11/03 16:55:17;;;;;;;25.33;11.23;;;8.80;99.90;;;;;;10371199;28;20208;-82
2022/11/03 17:00:38;;;;;;;19.47;10.30;;;8.80;99.90;;;;;;10382629;28;20276;-77
2022/11/03 17:06:00;;;;;;;22.43;10.87;;;8.80;99.90;;;;;;10323046;28;20269;-82
2022/11/03 17:11:34;;;;;;;41.57;20.20;;;8.70;99.90;;;;;;10352764;28;20476;-80
2022/11/03 17:16:56;;;;;;;28.57;15.47;;;8.60;99.90;;;;;;10388473;28;20204;-79
2022/11/03 17:22:21;;;;;;;35.43;18.10;;;8.60;99.90;;;;;;10395146;28;20194;-79
2022/11/03 17:27:47;;;;;;;38.30;21.17;;;;;;;;;;10348677;28;20249;-81
2022/11/03 17:33:14;;;;;;;30.17;13.80;;;8.40;99.90;;;;;;10343598;28;20203;-81
2022/11/03 17:38:37;;;;;;;30.40;13.27;;;8.30;99.90;;;;;;10335787;28;20187;-82
2022/11/03 17:43:58;;;;;;;26.40;13.50;;;8.20;99.90;;;;;;10382271;28;20301;-80
2022/11/03 17:49:19;;;;;;;31.77;12.23;;;8.20;99.90;;;;;;10393898;28;20198;-81
2022/11/03 17:54:41;;;;;;;27.60;12.03;;;8.20;99.90;;;;;;10378093;28;20232;-81
2022/11/03 18:00:03;;;;;;;26.30;13.93;;;8.10;99.90;;;;;;10371283;28;20186;-82
2022/11/03 18:05:30;;;;;;;27.83;13.50;;;8.10;99.90;;;;;;10352452;28;20262;-82
2022/11/03 18:10:53;;;;;;;27.03;14.17;;;8.00;99.90;;;;;;10361463;28;20255;-81
2022/11/03 18:16:14;;;;;;;23.13;11.77;;;7.90;99.90;;;;;;10376334;28;20496;-81
2022/11/03 18:21:36;;;;;;;27.37;12.73;;;;;;;;;;10352914;28;20485;-82
2022/11/03 18:26:57;;;;;;;27.83;12.87;;;7.80;99.90;;;;;;10346242;28;20228;-80
2022/11/03 18:32:18;;;;;;;26.37;13.30;;;7.80;99.90;;;;;;10372671;28;20190;-81
2022/11/03 18:37:42;;;;;;;30.93;13.00;;;7.80;99.90;;;;;;10346014;28;20200;-82
2022/11/03 18:43:18;;;;;;;34.43;16.47;;;7.80;99.90;;;;;;10359434;28;20197;-81
2022/11/03 18:48:40;;;;;;;24.37;12.63;;;7.70;99.90;;;;;;10387073;28;20292;-82
2022/11/03 18:54:02;;;;;;;23.63;13.27;;;7.60;99.90;;;;;;10390684;28;20205;-79
2022/11/03 18:59:33;;;;;;;28.73;13.57;;;7.50;99.90;;;;;;10391166;28;20496;-83
2022/11/03 19:04:54;;;;;;;37.20;16.90;;;7.40;99.90;;;;;;10344867;28;20249;-82
2022/11/03 19:10:21;;;;;;;27.17;13.20;;;7.40;99.90;;;;;;10358379;28;20416;-80
2022/11/03 19:15:42;;;;;;;23.07;12.87;;;7.30;99.90;;;;;;10364864;28;20213;-82
2022/11/03 19:21:18;;;;;;;27.47;15.90;;;7.30;99.90;;;;;;10357399;28;20193;-82
2022/11/03 19:27:10;;;;;;;32.70;17.57;;;7.20;99.90;;;;;;10373876;28;20547;-82
2022/11/03 19:32:40;;;;;;;34.53;18.00;;;7.20;99.90;;;;;;10304736;28;20198;-81
2022/11/03 19:38:04;;;;;;;30.47;14.47;;;7.20;99.90;;;;;;10354876;28;20372;-81
2022/11/03 19:43:25;;;;;;;27.60;13.83;;;7.10;99.90;;;;;;10359180;28;20310;-82
2022/11/03 19:48:49;;;;;;;42.77;23.50;;;7.10;99.90;;;;;;10343214;28;20599;-82
2022/11/03 19:54:16;;;;;;;28.83;15.40;;;7.10;99.90;;;;;;10372156;28;20201;-82
2022/11/03 19:59:38;;;;;;;41.47;18.93;;;7.00;99.90;;;;;;10388454;28;20225;-82
2022/11/03 20:04:59;;;;;;;29.73;15.10;;;7.00;99.90;;;;;;10388843;28;20225;-82
2022/11/03 20:10:20;;;;;;;30.57;14.87;;;6.90;99.90;;;;;;10389315;28;20255;-82
2022/11/03 20:15:41;;;;;;;30.50;12.83;;;6.90;99.90;;;;;;10343105;28;20223;-81
2022/11/03 20:21:03;;;;;;;31.80;13.63;;;6.90;99.90;;;;;;10387847;28;20219;-82
2022/11/03 20:26:25;;;;;;;27.33;13.27;;;6.90;99.90;;;;;;10372534;28;20231;-82
2022/11/03 20:31:47;;;;;;;25.27;12.60;;;6.90;99.90;;;;;;10410096;28;20197;-81
2022/11/03 20:37:19;;;;;;;33.13;18.07;;;6.80;99.90;;;;;;10388555;28;20201;-82
2022/11/03 20:42:40;;;;;;;28.70;14.87;;;6.70;99.90;;;;;;10357105;28;20244;-82
2022/11/03 20:48:02;;;;;;;23.73;11.93;;;6.70;99.90;;;;;;10395495;28;20230;-82
2022/11/03 20:53:24;;;;;;;24.33;12.83;;;6.70;99.90;;;;;;10400649;28;20549;-82
2022/11/03 20:58:46;;;;;;;26.00;12.77;;;6.70;99.90;;;;;;10402670;28;20439;-81
2022/11/03 21:04:13;;;;;;;26.67;11.07;;;6.70;99.90;;;;;;10355300;28;20208;-82
2022/11/03 21:09:34;;;;;;;21.53;10.30;;;6.70;99.90;;;;;;10400280;28;20601;-82
2022/11/03 21:20:35;;;;;;;25.70;10.87;;;6.80;99.90;;;;;;10403725;28;20244;-81
2022/11/03 21:25:56;;;;;;;30.47;10.27;;;6.80;99.90;;;;;;10385138;28;20236;-81
2022/11/03 21:31:18;;;;;;;17.70;8.93;;;6.70;99.90;;;;;;10354704;28;20463;-82
2022/11/03 21:36:39;;;;;;;18.60;9.70;;;6.70;99.90;;;;;;10331867;28;20194;-81
2022/11/03 21:49:41;;;;;;;17.23;9.40;;;6.60;99.90;;;;;;10330428;28;20279;-81
2022/11/03 21:53:22;;;;;;;21.73;10.50;;;6.70;99.90;;;;;;10328894;28;20426;-81
2022/11/03 21:58:43;;;;;;;23.13;10.00;;;6.70;99.90;;;;;;10344570;28;20200;-81
2022/11/03 22:04:05;;;;;;;19.53;10.13;;;6.70;99.90;;;;;;10363906;28;20192;-82
2022/11/03 22:09:27;;;;;;;23.50;10.53;;;6.60;99.90;;;;;;10361660;28;20225;-82
2022/11/03 22:31:56;;;;;;;19.70;9.77;;;6.50;99.90;;;;;;10362908;28;20273;-82
2022/11/03 22:37:18;;;;;;;19.53;10.80;;;6.40;99.90;;;;;;10375071;28;20271;-81
2022/11/03 22:48:23;;;;;;;20.33;11.20;;;6.40;99.90;;;;;;10391368;28;20272;-81
2022/11/03 22:59:24;;;;;;;21.20;10.93;;;6.40;99.90;;;;;;10359830;28;20380;-79
2022/11/03 23:04:45;;;;;;;16.77;10.00;;;6.40;99.90;;;;;;10359636;28;20383;-82
2022/11/03 23:10:07;;;;;;;20.13;9.80;;;6.30;99.90;;;;;;10326024;28;20511;-81
2022/11/03 23:15:31;;;;;;;18.47;9.70;;;6.30;99.90;;;;;;10376818;28;20205;-80
2022/11/03 23:21:07;;;;;;;22.93;10.07;;;6.30;99.90;;;;;;10358508;28;20201;-82
2022/11/03 23:26:29;;;;;;;21.23;9.73;;;6.30;99.90;;;;;;10371257;28;20236;-80
2022/11/03 23:31:50;;;;;;;20.00;9.30;;;6.30;99.90;;;;;;10358461;28;20239;-78
2022/11/03 23:37:11;;;;;;;20.50;10.67;;;6.30;99.90;;;;;;10374837;28;20208;-81
2022/11/03 23:42:32;;;;;;;24.33;10.30;;;6.30;99.90;;;;;;10404562;28;20198;-82
2022/11/03 23:53:35;;;;;;;22.77;10.70;;;6.40;99.90;;;;;;10389228;28;20201;-82
2022/11/03 23:58:56;;;;;;;18.50;9.77;;;6.40;99.90;;;;;;10384118;28;20272;-82
